Sunday, July 22, 2018, 7:48 PM EDT
Back to Local

KADW, Camp Springs / Andrews Air Force Base

Location: Andrews Air Force Base, MD, United States Lat: 38.817
Local Time: 7:48 PM EDT (23:48 GMT) Lon: -76.85
Time Zone: US/Eastern Elev: 282 ft

Show me the last for .
Show Decoded

2018-07-22 19:16 METAR KADW 222316Z AUTO 00000KT 10SM FEW001 SCT021 SCT130 22/20 A2983 RMK AO2
                 LTG DSNT NE RAE16 TSE2259 SLP107 $ =
2018-07-22 19:14 METAR KADW 222314Z AUTO 00000KT 10SM -RA FEW001 SCT021 BKN130 22/20 A2983 RMK
                 AO2 LTG DSNT NE TSE2259 SLP107 $ =
2018-07-22 19:09 METAR KADW 222309Z AUTO 00000KT 10SM -RA VCTS FEW001 BKN021 BKN120 21/20 A2983
                 RMK AO2 TSE2259 SLP107 $ =
2018-07-22 18:59 METAR KADW 222259Z AUTO 04004KT 6SM -RA BR VCTS FEW001 21/19 A2982 RMK AO2 TSE59
                 SLP103 $ =
2018-07-22 18:57 METAR KADW 222257Z AUTO 06004KT 3SM -TSRA FEW001 21/19 A2982 RMK AO2 VIS 2 1/2
                 RWY01L/19R VIS 2 1/4 RWY19R SLP103 $ =
2018-07-22 18:56 METAR KADW 222256Z AUTO 07004KT 2 1/2SM -TSRA FEW001 21/19 A2982 RMK AO2 PK WND
                 18029/39 VIS 1 1/4V2 1/2 VIS 2 RWY01L/19R VIS 1 7/8 RWY19R DZE2156DZB10E13RAB13
                 TSB15 SLP103 P0042 T02120186 $ =
2018-07-22 18:55 METAR KADW 222255Z AUTO 07005KT 2 1/2SM -TSRA FEW001 21/19 A2982 RMK AO2 VIS 1
                 1/4V2 1/2 VIS 2 RWY01L/19R VIS 1 7/8 RWY19R DZE2156DZB10E13RAB13 TSB15 SLP103 $
                 =
2018-07-22 18:54 METAR KADW 222254Z AUTO 07006KT 1 3/4SM +TSRA SCT001 21/19 A2982 RMK AO2 VIS 1
                 1/4V1 3/4 DZE2156DZB10E13RAB13 TSB15 SLP103 $ =
2018-07-22 18:53 METAR KADW 222253Z AUTO 09007KT 1 3/8SM +TSRA SCT001 21/19 A2982 RMK AO2 VIS 1
                 1/4V2 DZE2156DZB10E13RAB13 TSB15 PRESFR SLP103 $ =
2018-07-22 18:49 METAR KADW 222249Z AUTO 15006KT 1 1/4SM +TSRA BR SCT001 22/20 A2984 RMK AO2 VIS
                 1 1/4V2 1/4 DZE2156DZB10E13RAB13 TSB15 SLP110 $ =
2018-07-22 18:48 METAR KADW 222248Z AUTO 16008KT 1 3/8SM +TSRA BR FEW002 22/20 A2984 RMK AO2 VIS
                 1 3/8V2 1/4 DZE2156DZB10E13RAB13 TSB15 SLP110 $ =
2018-07-22 18:45 METAR KADW 222245Z AUTO 17018KT 1 3/4SM +TSRA BR FEW002 22/21 A2985 RMK AO2 VIS
                 1 3/4V2 3/4 DZE2156DZB10E13RAB13 TSB15 SLP114 $ =
2018-07-22 18:38 METAR KADW 222238Z AUTO 17019KT 2 1/4SM +TSRA BR FEW002 BKN035 22/21 A2986 RMK
                 AO2 VIS 2 1/4V8 DZE2156DZB10E13RAB13 TSB15 SLP117 $ =
2018-07-22 18:36 METAR KADW 222236Z AUTO 17016KT 2 3/4SM +TSRA BR BKN035 22/21 A2986 RMK AO2 VIS
                 2 3/4V9 DZE2156DZB10E13RAB13 TSB15 PRESRR SLP117 $ =
2018-07-22 18:15 METAR KADW 222215Z AUTO 10008KT 10SM -TSRA FEW080 23/21 A2983 RMK AO2
                 DZE2156DZB10E13RAB13 TSB15 SLP107 $ =
2018-07-22 18:10 METAR KADW 222210Z AUTO 11010KT 10SM -DZ VCTS FEW021 FEW080 23/21 A2983 RMK AO2
                 DZE2156DZB10 SLP107 $ =
2018-07-22 17:57 METAR KADW 222157Z AUTO 11009KT 10SM VCTS SCT026 23/22 A2983 RMK AO2 DZE56
                 SLP107 $ =
2018-07-22 17:56 METAR KADW 222156Z AUTO 11011KT 10SM -DZ VCTS SCT026 23/22 A2983 RMK AO2
                 DZB03E12DZB28E29RAB29E55DZB55 SLP107 P0009 T02320218 $ =
2018-07-22 17:44 METAR KADW 222144Z AUTO 10009KT 3SM +RA BR BKN026 24/22 A2983 RMK AO2 LTG DSNT
                 NE-E DZB03E12DZB28E29RAB29 CIG 025 RWY19L SLP107 $ =
2018-07-22 17:38 METAR KADW 222138Z AUTO 12011KT 2 1/2SM +RA BKN027 BKN042 25/22 A2983 RMK AO2
                 VIS 2 1/2V10 LTG DSNT NE-SE DZB03E12DZB28E29RAB29 CIG 027V042 BKN027 V SCT
                 SLP106 $ =
2018-07-22 17:33 METAR KADW 222133Z AUTO 11009KT 6SM +RA VCTS SCT023 BKN029 BKN042 25/22 A2983
                 RMK AO2 DZB03E12DZB28E29RAB29 CIG 029V042 BKN029 V SCT SLP106 $ =
2018-07-22 17:28 METAR KADW 222128Z AUTO 09010KT 10SM -DZ VCTS FEW023 SCT029 26/22 A2982 RMK AO2
                 DZB03E12DZB28 SLP103 $ =
2018-07-22 17:12 METAR KADW 222112Z AUTO 11008KT 10SM SCT021 SCT032 BKN150 BKN190 26/22 A2983 RMK
                 AO2 LTG DSNT E-S DZB03E12 SLP106 $ =
2018-07-22 17:08 METAR KADW 222108Z AUTO 10007KT 10SM -DZ SCT021 BKN150 BKN190 27/22 A2982 RMK
                 AO2 LTG DSNT SE-S DZB03 SLP103 $ =
2018-07-22 17:03 METAR KADW 222103Z AUTO 10005KT 10SM -DZ BKN021 BKN190 27/22 A2981 RMK AO2 LTG
                 DSNT SE DZB03 CIG 021V190 SLP100 $ =
2018-07-22 17:01 METAR KADW 222101Z AUTO 12006KT 10SM BKN021 BKN190 27/22 A2981 RMK AO2 CIG
                 021V190 SLP100 $ =
2018-07-22 16:56 METAR KADW 222056Z AUTO 08005KT 10SM SCT022 BKN190 27/22 A2982 RMK AO2 SLP103
                 60047 T02700217 50002 $ =
2018-07-22 15:56 METAR KADW 221956Z AUTO 11006KT 10SM FEW100 26/22 A2982 RMK AO2 SLP103 T02560221
                 $ =
2018-07-22 15:21 METAR KADW 221921Z COR 12006KT 10SM FEW030 FEW090 FEW140 FEW170 SCT190 24/22
                 A2982 RMK AO2A LTG DSNT NE-E SLP103 $ COR 1929 =
2018-07-22 14:56 METAR KADW 221856Z COR AUTO 13005KT 10SM VCTS SCT009 BKN020 BKN150 BKN190 22/22
                 A2981 RMK AO2 RAE40DZB40E41 TSB07E53 SLP100 P0047 T02230216 $ COR 1901 =
2018-07-22 14:53 METAR KADW 221853Z AUTO 12007KT 10SM VCTS SCT009 SCT090 BKN150 BKN190 22/21
                 A2982 RMK AO2 RAE40DZB40E41 TSB07E53 SLP103 $ =
2018-07-22 14:51 METAR KADW 221851Z AUTO 13007KT 10SM TS FEW007 SCT013 SCT090 BKN150 BKN190 22/22
                 A2982 RMK AO2 RAE40DZB40E41 TSB07 SLP103 $ =
2018-07-22 14:41 METAR KADW 221841Z AUTO 14008KT 10SM TS FEW002 SCT007 BKN015 22/21 A2982 RMK AO2
                 RAE40DZB40E41 TSB07 SLP103 $ =
2018-07-22 14:32 METAR KADW 221832Z 13011KT 4SM -TSRA BR SCT002 BKN007 OVC018 21/21 A2983 RMK
                 AO2A TSB07 SLP107 $ =
2018-07-22 14:30 METAR KADW 221830Z 13012KT 2SM -TSRA BR SCT002 SCT008 OVC018 21/21 A2983 RMK
                 AO2A VIS 1 1/8V2 TSB07 SLP107 $ =
2018-07-22 14:29 METAR KADW 221829Z 13011KT 1 1/2SM -TSRA BR SCT002 SCT008 OVC018 21/21 A2982 RMK
                 AO2A TSB07 SLP103 $ =
2018-07-22 14:28 METAR KADW 221828Z 13011KT 1 1/4SM -TSRA BR SCT002 SCT008 OVC018 21/21 A2982 RMK
                 AO2A TSB07 SLP103 $ =
2018-07-22 14:18 METAR KADW 221818Z 15012G17KT 1 1/8SM R19R/6000FT +TSRA BR SCT002 OVC018 22/21
                 A2982 RMK AO2A TSB07 SLP103 $ =
2018-07-22 14:07 METAR KADW 221807Z 11009KT 1SM R19R/5000VP6000FT +TSRA BR SCT002 BKN015 OVC020
                 23/22 A2982 RMK AO2A VIS 1V8 TSB07 BKN V OVC SLP103 $ =
2018-07-22 14:06 METAR KADW 221806Z 10009KT 1SM R19R/5000VP6000FT +RA BR VCTS SCT002 BKN015
                 OVC020 23/22 A2982 RMK AO2A VIS 1V8 BKN V OVC SLP103 $ =
2018-07-22 14:05 METAR KADW 221805Z 10010KT 1 1/8SM R19R/6000FT +RA BR VCTS SCT002 OVC015 23/22
                 A2982 RMK AO2A VIS 1 1/8V9 SLP103 $ =
2018-07-22 14:04 METAR KADW 221804Z 08009KT 1 1/2SM +RA BR VCTS FEW002 OVC015 23/22 A2982 RMK
                 AO2A VIS 1 1/2V9 SLP103 $ =
2018-07-22 14:03 METAR KADW 221803Z 08009KT 2SM +RA BR VCTS FEW002 OVC015 23/22 A2982 RMK AO2A
                 VIS 2V10 SLP103 $ =
2018-07-22 13:58 METAR KADW 221758Z 07009KT 7SM +RA VCTS FEW002 OVC015 23/22 A2981 RMK AO2A
                 SLP100 $ =
2018-07-22 13:56 METAR KADW 221756Z 08008KT 9SM +RA VCTS FEW008 OVC015 24/21 A2981 RMK AO2A
                 RAE04RAB53 SLP100 P0002 60002 T02350212 10251 20185 57014 $ =
2018-07-22 13:53 METAR KADW 221753Z 08007KT 10SM RA OVC015 24/21 A2981 RMK AO2A RAE04RAB53 SLP100
                 $ =
2018-07-22 13:29 METAR KADW 221729Z 08009KT 10SM BKN017 BKN023 OVC029 24/21 A2982 RMK AO2A RAE04
                 CIG 016 RWY19L SLP103 $ =
2018-07-22 13:04 METAR KADW 221704Z 11006KT 10SM SCT018 BKN024 BKN030 23/21 A2983 RMK AO2A RAE04
                 CIG 022 RWY19L SLP106 $ =
2018-07-22 13:01 METAR KADW 221701Z 11006KT 10SM -RA SCT018 BKN024 BKN190 23/21 A2983 RMK AO2A
                 CIG 019 RWY19L SLP106 $ =
2018-07-22 12:56 METAR KADW 221656Z 10007KT 10SM -RA BKN019 BKN025 BKN190 23/21 A2983 RMK AO2A
                 RAB48 BKN019 V SCT SLP106 P0000 T02310208 $ =
2018-07-22 12:53 METAR KADW 221653Z 11006KT 10SM -RA BKN019 BKN025 BKN190 23/21 A2983 RMK AO2A
                 RAB48 BKN019 V SCT SLP106 $ =
2018-07-22 12:48 METAR KADW 221648Z 11007KT 10SM -RA SCT019 BKN026 BKN190 24/20 A2984 RMK AO2A
                 RAB48 BKN026 V SCT CIG 019 RWY19L SLP110 $ =
2018-07-22 12:46 METAR KADW 221646Z 11007KT 10SM SCT019 BKN026 BKN130 BKN190 24/20 A2984 RMK AO2A
                 BKN026 V SCT CIG 014 RWY19L SLP110 $ =
2018-07-22 12:21 METAR KADW 221621Z 12011KT 10SM BKN017 BKN022 OVC180 25/21 A2984 RMK AO2A SLP110
                 $ =
2018-07-22 11:56 METAR KADW 221556Z COR 08008KT 10SM BKN020 BKN190 BKN210 25/20 A2984 RMK AO2A
                 SLP110 T02490199 $ COR 1630 =
2018-07-22 10:56 METAR KADW 221456Z 12007KT 10SM BKN010 OVC034 23/19 A2985 RMK AO2A SLP113
                 T02260193 51016 $ =
2018-07-22 10:51 METAR KADW 221451Z AUTO 13005KT 10SM SCT015 BKN035 BKN200 23/19 A2985 RMK AO2
                 SLP113 $ =
2018-07-22 09:56 METAR KADW 221356Z COR AUTO 12005KT 10SM BKN010 BKN040 21/19 A2984 RMK AO2
                 SLP110 T02130188 $ COR 1420 =
2018-07-22 09:51 METAR KADW 221351Z AUTO 12007KT 10SM SCT009 SCT044 21/19 A2985 RMK AO2 SLP113 $
                 =
2018-07-22 09:01 METAR KADW 221301Z AUTO 13004KT 10SM OVC009 20/18 A2984 RMK AO2 SLP110 $ =
2018-07-22 08:56 METAR KADW 221256Z AUTO 12005KT 10SM OVC011 20/18 A2984 RMK AO2 SLP110 T02000179
                 $ =
2018-07-22 08:11 METAR KADW 221211Z AUTO 13006KT 10SM BKN013 19/18 A2982 RMK AO2 BKN V FEW PRESRR
                 SLP103 $ =
2018-07-22 07:56 METAR KADW 221156Z AUTO 12004KT 10SM FEW110 18/18 A2980 RMK AO2 SLP097 70413
                 T01840177 10185 20165 52027 $ =
2018-07-22 06:56 METAR KADW 221056Z COR AUTO 00000KT 10SM CLR 17/17 A2977 RMK AO2 SLP086
                 T01680168 RVRNO $ COR 1102 =
2018-07-22 05:56 METAR KADW 220956Z AUTO 18004KT 10SM CLR 17/17 A2976 RMK AO2 SLP083 T01670167 $
                 =
2018-07-22 04:56 METAR KADW 220856Z AUTO 24005KT 10SM FEW022 17/17 A2972 RMK AO2 SLP070 T01700170
                 52021 $ =
2018-07-22 04:41 METAR KADW 220841Z AUTO 25007KT 10SM SCT021 17/17 A2972 RMK AO2 SLP070 $ =
2018-07-22 04:26 METAR KADW 220826Z AUTO 23006KT 10SM OVC020 17/17 A2973 RMK AO2 CIG 018 RWY19L
                 SLP073 $ =
2018-07-22 03:56 METAR KADW 220756Z AUTO 24008KT 10SM SCT009 BKN016 17/17 A2971 RMK AO2 CIG
                 009V016 CIG 008 RWY19L SLP066 T01740174 $ =
2018-07-22 03:16 METAR KADW 220716Z AUTO 25008KT 10SM OVC008 17/17 A2969 RMK AO2 CIG 007 RWY19L
                 SLP060 $ =
2018-07-22 03:06 METAR KADW 220706Z AUTO 26008KT 10SM OVC007 17/17 A2969 RMK AO2 CIG 006 RWY19L
                 SLP060 $ =
2018-07-22 02:56 METAR KADW 220656Z AUTO 25011KT 10SM OVC006 17/17 A2969 RMK AO2 SLP060 T01730173
                 $ =
2018-07-22 02:06 METAR KADW 220606Z AUTO 27013KT 10SM BKN006 OVC017 18/18 A2966 RMK AO2 CIG
                 006V017 BKN V FEW CIG 005 RWY19L SLP049 $ =
2018-07-22 01:56 METAR KADW 220556Z AUTO 27011KT 10SM FEW006 OVC017 19/19 A2966 RMK AO2 CIG 015
                 RWY19L SLP049 60116 T01850185 10206 20179 53004 $ =
2018-07-22 01:26 METAR KADW 220526Z AUTO 29009KT 10SM SCT008 OVC015 18/18 A2965 RMK AO2 CIG
                 008V015 CIG 007 RWY19L SLP046 $ =
2018-07-22 01:16 METAR KADW 220516Z AUTO 30011KT 10SM BKN008 OVC013 18/18 A2965 RMK AO2 BKN V OVC
                 CIG 007 RWY19L SLP046 $ =
2018-07-22 00:56 METAR KADW 220456Z AUTO 29011KT 10SM OVC007 18/18 A2964 RMK AO2
                 RAE0356DZB0356E02 SLP042 P0001 T01820182 402200182 $ =
2018-07-22 00:12 METAR KADW 220412Z AUTO 30009KT 10SM OVC007 19/19 A2964 RMK AO2
                 RAE0356DZB0356E02 CIG 005 RWY19L SLP042 $ =
2018-07-22 00:02 METAR KADW 220402Z AUTO 32012KT 10SM OVC006 19/19 A2963 RMK AO2
                 RAE0356DZB0356E02 CIG 005 RWY19L SLP039 $ =
2018-07-21 23:56 METAR KADW 220356Z AUTO 33010KT 10SM -RA OVC006 19/19 A2963 RMK AO2
                 RAE02DZB02E03RAB03 CIG 005 RWY19L SLP039 P0005 T01900190 $ =
2018-07-21 23:06 METAR KADW 220306Z 35015KT 10SM -RA OVC006 19/19 A2964 RMK AO2A
                 RAE02DZB02E03RAB03 CIG 003 RWY19L SLP042 $ =
2018-07-21 22:56 METAR KADW 220256Z 34014KT 10SM -RA OVC005 20/20 A2965 RMK AO2A CIG 003 RWY19L
                 SLP046 P0015 60110 T01950195 57017 $ =
2018-07-21 22:19 METAR KADW 220219Z 34010KT 7SM +RA OVC005 20/20 A2966 RMK AO2A LTG DSNT NE OVC V
                 BKN CIG 002 RWY19L SLP049 $ =
2018-07-21 22:16 METAR KADW 220216Z 35012G19KT 8SM +RA BKN006 OVC010 20/20 A2966 RMK AO2A LTG
                 DSNT NE CIG 002 RWY19L SLP049 $ =
2018-07-21 21:56 METAR KADW 220156Z 01013KT 7SM RA VCTS BKN005 OVC009 20/20 A2966 RMK AO2A BKN V
                 OVC CIG 002 RWY19L SLP049 P0044 T02020202 $ =
2018-07-21 21:40 METAR KADW 220140Z 01013KT 6SM RA BR OVC005 20/20 A2966 RMK AO2A LTG DSNT SE CIG
                 003V005 CIG 002 RWY19L SLP049 $ =
2018-07-21 21:30 METAR KADW 220130Z 01014KT 6SM RA BR BKN003 OVC010 20/20 A2967 RMK AO2A CIG
                 001V005 SLP052 $ =
2018-07-21 21:20 METAR KADW 220120Z 01012KT 3SM +RA BR BKN001 BKN005 OVC012 20/20 A2968 RMK AO2A
                 VIS 2 1/2 RWY01L/19R VIS 2 1/4 RWY19R SLP056 $ =
2018-07-21 21:15 METAR KADW 220115Z 01013KT 2SM +RA BR BKN001 OVC012 20/20 A2968 RMK AO2A SLP056
                 $ =
2018-07-21 21:06 METAR KADW 220106Z 02011KT 1 7/8SM +RA BR BKN001 OVC014 20/20 A2969 RMK AO2A VIS
                 1 7/8V3 CIG 001V014 BKN V FEW SLP059 $ =
2018-07-21 20:58 METAR KADW 220058Z 02013KT 2 3/4SM +RA BR SCT001 BKN006 OVC014 20/20 A2969 RMK
                 AO2A VIS 2 1/2V3 SLP059 $ =
2018-07-21 20:56 METAR KADW 220056Z 02012KT 3SM +RA BR FEW001 BKN007 OVC014 20/20 A2969 RMK AO2A
                 VIS 2 1/2 RWY19R SLP059 P0050 T02010201 $ =
2018-07-21 20:52 METAR KADW 220052Z 02012KT 3SM +RA BR FEW001 BKN007 OVC014 20/20 A2969 RMK AO2A
                 VIS 2 1/2 RWY01L/19R VIS 2 1/4 RWY19R SLP059 $ =
2018-07-21 20:49 METAR KADW 220049Z 02014KT 2 1/2SM +RA BR FEW001 BKN007 OVC014 20/20 A2969 RMK
                 AO2A VIS 1 3/4V2 1/2 VIS 2 RWY01L/19R VIS 2 RWY19R SLP059 $ =
2018-07-21 20:38 METAR KADW 220038Z 02010KT 1 7/8SM +RA BR FEW002 BKN007 OVC012 20/20 A2970 RMK
                 AO2A VIS 1 7/8V3 CIG 002 RWY19L SLP062 $ =
2018-07-21 20:32 METAR KADW 220032Z 02011KT 2 3/4SM +RA BR FEW002 BKN007 OVC012 20/20 A2970 RMK
                 AO2A VIS 2 3/4V4 VIS 2 1/4 RWY19R CIG 005V012 CIG 002 RWY19L SLP062 $ =
2018-07-21 20:28 METAR KADW 220028Z 03009KT 3SM +RA BR BKN005 OVC012 20/20 A2970 RMK AO2A CIG
                 005V012 BKN V SCT CIG 002 RWY19L SLP062 $ =
2018-07-21 20:23 METAR KADW 220023Z 03011G21KT 3SM +RA BR FEW002 BKN006 OVC012 20/20 A2970 RMK
                 AO2A CIG 002 RWY19L SLP062 $ =
2018-07-21 20:20 METAR KADW 220020Z 02012G21KT 3SM +RA BR BKN006 OVC012 20/20 A2970 RMK CIG 002
                 RWY19L SLP062 $ =
2018-07-21 20:19 METAR KADW 220019Z AUTO 03013G21KT 3SM +RA BR FEW002 SCT006 OVC012 20/20 A2970
                 RMK AO2 CIG 002 RWY19L SLP062 $ =
2018-07-21 20:17 METAR KADW 220017Z AUTO 03015G21KT 3SM +RA BR SCT006 OVC010 20/20 A2969 RMK AO2
                 VIS 2 1/2 RWY01L/19R VIS 2 1/2 RWY19R CIG 002 RWY19L SLP059 $ =
2018-07-21 20:09 METAR KADW 220009Z AUTO 03013KT 2SM +RA BR SCT002 OVC011 20/20 A2969 RMK AO2 VIS
                 1 1/4V2 SLP059 $ =
2018-07-21 20:04 METAR KADW 220004Z AUTO 03015KT 1 1/2SM +RA BR SCT002 OVC011 21/21 A2970 RMK AO2
                 SLP062 $ =
2018-07-21 20:02 METAR KADW 220002Z AUTO 03014G20KT 1 3/8SM +RA BR SCT002 OVC011 21/21 A2970 RMK
                 AO2 SLP062 $ =
2018-07-21 20:01 METAR KADW 220001Z AUTO 03014G20KT 1 1/4SM +RA BR SCT002 OVC011 21/21 A2970 RMK
                 AO2 SLP062 $ =
2018-07-21 19:56 METAR KADW 212356Z AUTO 04014G20KT 1 1/4SM +RA BR SCT002 OVC009 21/21 A2970 RMK
                 AO2 SLP062 P0049 60203 T02060206 10206 20195 57018 $ =

Support USWX by starting your Amazon purchase here.